sensor_id;sensor_type;location;lat;lon;timestamp;temperature;humidity
29775;DHT22;16676;51.202;6.774;2022-10-15T00:01:19;20.60;67.00
29775;DHT22;16676;51.202;6.774;2022-10-15T00:05:22;20.60;67.00
29775;DHT22;16676;51.202;6.774;2022-10-15T00:09:25;20.60;66.90
29775;DHT22;16676;51.202;6.774;2022-10-15T00:13:27;20.60;67.00
29775;DHT22;16676;51.202;6.774;2022-10-15T00:17:29;20.50;66.90
29775;DHT22;16676;51.202;6.774;2022-10-15T00:21:31;20.60;67.00
29775;DHT22;16676;51.202;6.774;2022-10-15T00:25:35;20.50;66.80
29775;DHT22;16676;51.202;6.774;2022-10-15T00:29:37;20.60;66.80
29775;DHT22;16676;51.202;6.774;2022-10-15T00:33:39;20.50;66.80
29775;DHT22;16676;51.202;6.774;2022-10-15T00:37:41;20.50;66.80
29775;DHT22;16676;51.202;6.774;2022-10-15T00:41:46;20.50;66.80
29775;DHT22;16676;51.202;6.774;2022-10-15T00:45:48;20.50;66.80
29775;DHT22;16676;51.202;6.774;2022-10-15T00:49:54;20.50;66.80
29775;DHT22;16676;51.202;6.774;2022-10-15T00:53:59;20.50;66.80
29775;DHT22;16676;51.202;6.774;2022-10-15T00:58:05;20.50;66.70
29775;DHT22;16676;51.202;6.774;2022-10-15T01:02:09;20.50;66.70
29775;DHT22;16676;51.202;6.774;2022-10-15T01:06:11;20.50;66.70
29775;DHT22;16676;51.202;6.774;2022-10-15T01:10:13;20.50;66.80
29775;DHT22;16676;51.202;6.774;2022-10-15T01:14:30;20.50;66.60
29775;DHT22;16676;51.202;6.774;2022-10-15T01:18:35;20.50;66.70
29775;DHT22;16676;51.202;6.774;2022-10-15T01:22:50;20.50;66.60
29775;DHT22;16676;51.202;6.774;2022-10-15T01:27:19;20.50;66.80
29775;DHT22;16676;51.202;6.774;2022-10-15T01:31:30;20.50;66.60
29775;DHT22;16676;51.202;6.774;2022-10-15T01:35:42;20.50;66.60
29775;DHT22;16676;51.202;6.774;2022-10-15T01:39:50;20.50;66.70
29775;DHT22;16676;51.202;6.774;2022-10-15T01:43:57;20.40;66.50
29775;DHT22;16676;51.202;6.774;2022-10-15T01:48:04;20.40;66.50
29775;DHT22;16676;51.202;6.774;2022-10-15T01:52:11;20.40;66.40
29775;DHT22;16676;51.202;6.774;2022-10-15T01:56:18;20.40;66.60
29775;DHT22;16676;51.202;6.774;2022-10-15T02:00:21;20.40;66.60
29775;DHT22;16676;51.202;6.774;2022-10-15T02:04:25;20.40;66.40
29775;DHT22;16676;51.202;6.774;2022-10-15T02:08:32;20.40;66.40
29775;DHT22;16676;51.202;6.774;2022-10-15T02:12:47;20.50;66.30
29775;DHT22;16676;51.202;6.774;2022-10-15T02:16:55;20.50;66.40
29775;DHT22;16676;51.202;6.774;2022-10-15T02:21:04;20.40;66.50
29775;DHT22;16676;51.202;6.774;2022-10-15T02:25:11;20.40;66.40
29775;DHT22;16676;51.202;6.774;2022-10-15T02:29:18;20.40;66.30
29775;DHT22;16676;51.202;6.774;2022-10-15T02:33:22;20.40;66.30
29775;DHT22;16676;51.202;6.774;2022-10-15T02:37:28;20.40;66.30
29775;DHT22;16676;51.202;6.774;2022-10-15T02:41:33;20.40;66.50
29775;DHT22;16676;51.202;6.774;2022-10-15T02:45:36;20.40;66.40
29775;DHT22;16676;51.202;6.774;2022-10-15T02:49:38;20.40;66.50
29775;DHT22;16676;51.202;6.774;2022-10-15T02:53:41;20.40;66.30
29775;DHT22;16676;51.202;6.774;2022-10-15T02:57:43;20.40;66.20
29775;DHT22;16676;51.202;6.774;2022-10-15T03:01:45;20.40;66.20
29775;DHT22;16676;51.202;6.774;2022-10-15T03:05:47;20.40;66.20
29775;DHT22;16676;51.202;6.774;2022-10-15T03:09:50;20.40;66.10
29775;DHT22;16676;51.202;6.774;2022-10-15T03:13:52;20.40;66.10
29775;DHT22;16676;51.202;6.774;2022-10-15T03:17:54;20.40;66.20
29775;DHT22;16676;51.202;6.774;2022-10-15T03:21:56;20.40;66.20
29775;DHT22;16676;51.202;6.774;2022-10-15T03:25:59;20.40;66.10
29775;DHT22;16676;51.202;6.774;2022-10-15T03:30:02;20.40;66.20
29775;DHT22;16676;51.202;6.774;2022-10-15T03:34:04;20.40;66.20
29775;DHT22;16676;51.202;6.774;2022-10-15T03:38:06;20.40;66.10
29775;DHT22;16676;51.202;6.774;2022-10-15T03:42:10;20.30;66.10
29775;DHT22;16676;51.202;6.774;2022-10-15T03:46:12;20.30;66.10
29775;DHT22;16676;51.202;6.774;2022-10-15T03:50:14;20.30;66.10
29775;DHT22;16676;51.202;6.774;2022-10-15T03:54:16;20.40;66.00
29775;DHT22;16676;51.202;6.774;2022-10-15T03:58:19;20.40;66.10
29775;DHT22;16676;51.202;6.774;2022-10-15T04:02:21;20.30;66.00
29775;DHT22;16676;51.202;6.774;2022-10-15T04:06:23;20.30;66.00
29775;DHT22;16676;51.202;6.774;2022-10-15T04:10:25;20.30;65.90
29775;DHT22;16676;51.202;6.774;2022-10-15T04:14:29;20.40;66.00
29775;DHT22;16676;51.202;6.774;2022-10-15T04:18:31;20.30;65.80
29775;DHT22;16676;51.202;6.774;2022-10-15T04:22:33;20.30;65.90
29775;DHT22;16676;51.202;6.774;2022-10-15T04:26:37;20.30;65.90
29775;DHT22;16676;51.202;6.774;2022-10-15T04:30:40;20.30;65.80
29775;DHT22;16676;51.202;6.774;2022-10-15T04:34:42;20.30;65.70
29775;DHT22;16676;51.202;6.774;2022-10-15T04:38:46;20.30;65.80
29775;DHT22;16676;51.202;6.774;2022-10-15T04:42:48;20.30;65.80
29775;DHT22;16676;51.202;6.774;2022-10-15T04:46:51;20.30;65.80
29775;DHT22;16676;51.202;6.774;2022-10-15T04:50:53;20.30;65.80
29775;DHT22;16676;51.202;6.774;2022-10-15T04:54:55;20.30;65.80
29775;DHT22;16676;51.202;6.774;2022-10-15T04:58:58;20.30;65.80
29775;DHT22;16676;51.202;6.774;2022-10-15T05:03:01;20.30;65.80
29775;DHT22;16676;51.202;6.774;2022-10-15T05:07:03;20.30;65.80
29775;DHT22;16676;51.202;6.774;2022-10-15T05:11:07;20.30;65.70
29775;DHT22;16676;51.202;6.774;2022-10-15T05:15:09;20.30;65.70
29775;DHT22;16676;51.202;6.774;2022-10-15T05:19:13;20.30;65.70
29775;DHT22;16676;51.202;6.774;2022-10-15T05:23:16;20.30;65.80
29775;DHT22;16676;51.202;6.774;2022-10-15T05:27:18;20.30;65.80
29775;DHT22;16676;51.202;6.774;2022-10-15T05:31:21;20.30;65.90
29775;DHT22;16676;51.202;6.774;2022-10-15T05:35:25;20.30;65.80
29775;DHT22;16676;51.202;6.774;2022-10-15T05:39:27;20.30;65.70
29775;DHT22;16676;51.202;6.774;2022-10-15T05:43:29;20.30;65.70
29775;DHT22;16676;51.202;6.774;2022-10-15T05:47:31;20.20;65.70
29775;DHT22;16676;51.202;6.774;2022-10-15T05:51:34;20.30;65.70
29775;DHT22;16676;51.202;6.774;2022-10-15T05:55:36;20.30;65.60
29775;DHT22;16676;51.202;6.774;2022-10-15T05:59:38;20.30;65.60
29775;DHT22;16676;51.202;6.774;2022-10-15T06:03:41;20.30;65.70
29775;DHT22;16676;51.202;6.774;2022-10-15T06:07:45;20.30;65.60
29775;DHT22;16676;51.202;6.774;2022-10-15T06:11:47;20.20;65.70
29775;DHT22;16676;51.202;6.774;2022-10-15T06:15:49;20.30;65.70
29775;DHT22;16676;51.202;6.774;2022-10-15T06:19:51;20.20;65.60
29775;DHT22;16676;51.202;6.774;2022-10-15T06:23:54;20.30;65.60
29775;DHT22;16676;51.202;6.774;2022-10-15T06:28:00;20.30;65.60
29775;DHT22;16676;51.202;6.774;2022-10-15T06:32:03;20.20;65.70
29775;DHT22;16676;51.202;6.774;2022-10-15T06:36:07;20.20;65.60
29775;DHT22;16676;51.202;6.774;2022-10-15T06:40:11;20.20;65.60
29775;DHT22;16676;51.202;6.774;2022-10-15T06:44:13;20.30;65.60
29775;DHT22;16676;51.202;6.774;2022-10-15T06:48:16;20.20;65.50
29775;DHT22;16676;51.202;6.774;2022-10-15T06:52:18;20.20;65.60
29775;DHT22;16676;51.202;6.774;2022-10-15T06:56:21;20.20;65.40
29775;DHT22;16676;51.202;6.774;2022-10-15T07:00:24;20.30;65.30
29775;DHT22;16676;51.202;6.774;2022-10-15T07:04:26;20.30;65.20
29775;DHT22;16676;51.202;6.774;2022-10-15T07:08:28;20.30;65.10
29775;DHT22;16676;51.202;6.774;2022-10-15T07:12:31;20.30;65.00
29775;DHT22;16676;51.202;6.774;2022-10-15T07:16:33;20.30;64.90
29775;DHT22;16676;51.202;6.774;2022-10-15T07:20:36;20.40;64.80
29775;DHT22;16676;51.202;6.774;2022-10-15T07:24:38;20.50;64.40
29775;DHT22;16676;51.202;6.774;2022-10-15T07:28:42;20.60;64.10
29775;DHT22;16676;51.202;6.774;2022-10-15T07:32:44;20.50;64.30
29775;DHT22;16676;51.202;6.774;2022-10-15T07:36:46;20.50;64.50
29775;DHT22;16676;51.202;6.774;2022-10-15T07:40:47;20.40;64.60
29775;DHT22;16676;51.202;6.774;2022-10-15T07:44:51;20.40;64.70
29775;DHT22;16676;51.202;6.774;2022-10-15T07:48:53;19.90;67.20
29775;DHT22;16676;51.202;6.774;2022-10-15T07:52:55;19.50;70.50
29775;DHT22;16676;51.202;6.774;2022-10-15T07:56:57;19.10;73.10
29775;DHT22;16676;51.202;6.774;2022-10-15T08:01:01;18.80;75.10
29775;DHT22;16676;51.202;6.774;2022-10-15T08:05:03;18.60;76.50
29775;DHT22;16676;51.202;6.774;2022-10-15T08:09:05;18.60;77.40
29775;DHT22;16676;51.202;6.774;2022-10-15T08:13:07;18.50;78.10
29775;DHT22;16676;51.202;6.774;2022-10-15T08:17:11;18.50;78.40
29775;DHT22;16676;51.202;6.774;2022-10-15T08:21:14;18.40;78.90
29775;DHT22;16676;51.202;6.774;2022-10-15T08:25:16;18.30;79.90
29775;DHT22;16676;51.202;6.774;2022-10-15T08:29:18;18.40;80.10
29775;DHT22;16676;51.202;6.774;2022-10-15T08:33:21;18.40;79.80
29775;DHT22;16676;51.202;6.774;2022-10-15T08:37:23;18.40;80.00
29775;DHT22;16676;51.202;6.774;2022-10-15T08:41:29;18.40;80.40
29775;DHT22;16676;51.202;6.774;2022-10-15T08:45:37;18.40;80.20
29775;DHT22;16676;51.202;6.774;2022-10-15T08:49:46;18.40;80.50
29775;DHT22;16676;51.202;6.774;2022-10-15T08:53:49;18.50;80.00
29775;DHT22;16676;51.202;6.774;2022-10-15T08:57:56;18.40;80.40
29775;DHT22;16676;51.202;6.774;2022-10-15T09:02:01;18.30;80.50
29775;DHT22;16676;51.202;6.774;2022-10-15T09:06:13;18.20;81.30
29775;DHT22;16676;51.202;6.774;2022-10-15T09:10:22;18.20;81.80
29775;DHT22;16676;51.202;6.774;2022-10-15T09:14:32;18.30;81.90
29775;DHT22;16676;51.202;6.774;2022-10-15T10:21:27;19.70;75.20
29775;DHT22;16676;51.202;6.774;2022-10-15T10:25:34;19.70;75.20
29775;DHT22;16676;51.202;6.774;2022-10-15T10:29:39;19.70;76.10
29775;DHT22;16676;51.202;6.774;2022-10-15T10:33:45;19.70;77.10
29775;DHT22;16676;51.202;6.774;2022-10-15T10:37:49;19.70;75.40
29775;DHT22;16676;51.202;6.774;2022-10-15T10:41:53;19.70;77.30
29775;DHT22;16676;51.202;6.774;2022-10-15T10:45:57;19.70;76.00
29775;DHT22;16676;51.202;6.774;2022-10-15T10:49:59;19.80;75.60
29775;DHT22;16676;51.202;6.774;2022-10-15T10:54:04;19.80;76.10
29775;DHT22;16676;51.202;6.774;2022-10-15T10:58:14;19.80;75.50
29775;DHT22;16676;51.202;6.774;2022-10-15T11:02:18;19.80;75.30
29775;DHT22;16676;51.202;6.774;2022-10-15T11:06:29;19.80;75.80
29775;DHT22;16676;51.202;6.774;2022-10-15T11:10:40;19.80;75.50
29775;DHT22;16676;51.202;6.774;2022-10-15T11:14:49;19.80;75.00
29775;DHT22;16676;51.202;6.774;2022-10-15T11:19:12;19.80;76.90
29775;DHT22;16676;51.202;6.774;2022-10-15T11:23:24;19.80;77.00
29775;DHT22;16676;51.202;6.774;2022-10-15T11:27:42;19.70;77.80
29775;DHT22;16676;51.202;6.774;2022-10-15T11:31:52;19.70;78.30
29775;DHT22;16676;51.202;6.774;2022-10-15T11:36:09;19.80;75.80
29775;DHT22;16676;51.202;6.774;2022-10-15T11:40:20;19.90;76.20
29775;DHT22;16676;51.202;6.774;2022-10-15T11:44:42;19.90;77.20
29775;DHT22;16676;51.202;6.774;2022-10-15T11:49:01;20.00;77.40
29775;DHT22;16676;51.202;6.774;2022-10-15T11:53:27;20.00;76.40
29775;DHT22;16676;51.202;6.774;2022-10-15T11:57:34;19.90;77.90
29775;DHT22;16676;51.202;6.774;2022-10-15T12:01:41;20.00;77.40
29775;DHT22;16676;51.202;6.774;2022-10-15T12:05:47;20.00;78.00
29775;DHT22;16676;51.202;6.774;2022-10-15T12:09:53;20.00;78.20
29775;DHT22;16676;51.202;6.774;2022-10-15T12:13:59;20.00;77.70
29775;DHT22;16676;51.202;6.774;2022-10-15T12:18:19;20.00;77.00
29775;DHT22;16676;51.202;6.774;2022-10-15T12:22:32;20.10;77.20
29775;DHT22;16676;51.202;6.774;2022-10-15T12:26:35;20.00;77.40
29775;DHT22;16676;51.202;6.774;2022-10-15T12:30:37;20.10;76.50
29775;DHT22;16676;51.202;6.774;2022-10-15T12:34:42;20.10;77.40
29775;DHT22;16676;51.202;6.774;2022-10-15T12:38:53;20.10;76.80
29775;DHT22;16676;51.202;6.774;2022-10-15T12:42:58;20.00;78.40
29775;DHT22;16676;51.202;6.774;2022-10-15T12:47:01;20.10;77.80
29775;DHT22;16676;51.202;6.774;2022-10-15T12:51:37;20.10;78.50
29775;DHT22;16676;51.202;6.774;2022-10-15T12:55:42;20.00;79.80
29775;DHT22;16676;51.202;6.774;2022-10-15T12:59:54;20.00;78.60
29775;DHT22;16676;51.202;6.774;2022-10-15T13:03:58;20.10;78.10
29775;DHT22;16676;51.202;6.774;2022-10-15T13:08:10;20.10;78.20
29775;DHT22;16676;51.202;6.774;2022-10-15T13:12:21;20.10;78.50
29775;DHT22;16676;51.202;6.774;2022-10-15T13:16:23;20.10;79.10
29775;DHT22;16676;51.202;6.774;2022-10-15T13:20:32;20.10;78.40
29775;DHT22;16676;51.202;6.774;2022-10-15T13:24:41;20.20;78.80
29775;DHT22;16676;51.202;6.774;2022-10-15T13:28:46;20.20;79.30
29775;DHT22;16676;51.202;6.774;2022-10-15T13:32:50;20.30;79.80
29775;DHT22;16676;51.202;6.774;2022-10-15T13:36:54;20.40;79.40
29775;DHT22;16676;51.202;6.774;2022-10-15T13:40:58;20.40;78.40
29775;DHT22;16676;51.202;6.774;2022-10-15T13:45:02;20.40;78.50
29775;DHT22;16676;51.202;6.774;2022-10-15T13:49:10;20.30;79.00
29775;DHT22;16676;51.202;6.774;2022-10-15T13:53:18;20.30;78.30
29775;DHT22;16676;51.202;6.774;2022-10-15T13:57:23;20.40;79.70
29775;DHT22;16676;51.202;6.774;2022-10-15T14:01:26;20.30;79.60
29775;DHT22;16676;51.202;6.774;2022-10-15T14:05:28;20.40;78.50
29775;DHT22;16676;51.202;6.774;2022-10-15T14:09:32;20.40;79.00
29775;DHT22;16676;51.202;6.774;2022-10-15T14:13:42;20.30;80.80
29775;DHT22;16676;51.202;6.774;2022-10-15T14:17:48;20.40;78.70
29775;DHT22;16676;51.202;6.774;2022-10-15T14:21:51;20.40;77.70
29775;DHT22;16676;51.202;6.774;2022-10-15T14:25:55;20.50;77.30
29775;DHT22;16676;51.202;6.774;2022-10-15T14:30:00;20.50;77.60
29775;DHT22;16676;51.202;6.774;2022-10-15T14:34:02;20.50;77.80
29775;DHT22;16676;51.202;6.774;2022-10-15T14:38:14;20.50;77.90
29775;DHT22;16676;51.202;6.774;2022-10-15T14:42:26;20.50;77.50
29775;DHT22;16676;51.202;6.774;2022-10-15T14:46:38;20.50;77.50
29775;DHT22;16676;51.202;6.774;2022-10-15T14:50:41;20.50;77.40
29775;DHT22;16676;51.202;6.774;2022-10-15T14:54:46;20.60;77.60
29775;DHT22;16676;51.202;6.774;2022-10-15T14:58:50;20.60;77.30
29775;DHT22;16676;51.202;6.774;2022-10-15T15:02:55;20.60;77.20
29775;DHT22;16676;51.202;6.774;2022-10-15T15:06:57;20.60;77.60
29775;DHT22;16676;51.202;6.774;2022-10-15T15:11:01;20.60;76.80
29775;DHT22;16676;51.202;6.774;2022-10-15T15:15:04;20.50;77.30
29775;DHT22;16676;51.202;6.774;2022-10-15T15:19:08;20.50;76.70
29775;DHT22;16676;51.202;6.774;2022-10-15T15:23:14;20.50;76.60
29775;DHT22;16676;51.202;6.774;2022-10-15T15:27:21;20.60;76.70
29775;DHT22;16676;51.202;6.774;2022-10-15T15:31:23;20.60;76.50
29775;DHT22;16676;51.202;6.774;2022-10-15T15:35:31;20.60;76.50
29775;DHT22;16676;51.202;6.774;2022-10-15T15:39:34;20.60;76.40
29775;DHT22;16676;51.202;6.774;2022-10-15T15:43:36;20.60;76.50
29775;DHT22;16676;51.202;6.774;2022-10-15T15:47:37;20.60;76.40
29775;DHT22;16676;51.202;6.774;2022-10-15T15:51:41;20.50;76.40
29775;DHT22;16676;51.202;6.774;2022-10-15T15:55:43;20.60;76.00
29775;DHT22;16676;51.202;6.774;2022-10-15T15:59:44;20.50;76.30
29775;DHT22;16676;51.202;6.774;2022-10-15T16:03:46;20.60;76.30
29775;DHT22;16676;51.202;6.774;2022-10-15T16:07:49;20.50;76.00
29775;DHT22;16676;51.202;6.774;2022-10-15T16:11:51;20.50;76.80
29775;DHT22;16676;51.202;6.774;2022-10-15T16:15:53;20.50;76.20
29775;DHT22;16676;51.202;6.774;2022-10-15T16:19:55;20.50;76.10
29775;DHT22;16676;51.202;6.774;2022-10-15T16:23:58;20.50;76.30
29775;DHT22;16676;51.202;6.774;2022-10-15T16:28:00;20.50;76.50
29775;DHT22;16676;51.202;6.774;2022-10-15T16:32:02;20.50;76.50
29775;DHT22;16676;51.202;6.774;2022-10-15T16:36:05;20.50;76.10
29775;DHT22;16676;51.202;6.774;2022-10-15T16:40:09;20.50;76.30
29775;DHT22;16676;51.202;6.774;2022-10-15T16:44:11;20.50;76.30
29775;DHT22;16676;51.202;6.774;2022-10-15T16:48:13;20.50;76.20
29775;DHT22;16676;51.202;6.774;2022-10-15T16:52:15;20.50;76.30
29775;DHT22;16676;51.202;6.774;2022-10-15T16:56:20;20.50;76.80
29775;DHT22;16676;51.202;6.774;2022-10-15T17:00:22;20.50;75.90
29775;DHT22;16676;51.202;6.774;2022-10-15T17:04:24;20.50;76.10
29775;DHT22;16676;51.202;6.774;2022-10-15T17:08:28;20.50;76.30
29775;DHT22;16676;51.202;6.774;2022-10-15T17:12:35;20.50;76.20
29775;DHT22;16676;51.202;6.774;2022-10-15T17:16:38;20.50;76.80
29775;DHT22;16676;51.202;6.774;2022-10-15T17:20:44;20.50;76.60
29775;DHT22;16676;51.202;6.774;2022-10-15T17:24:48;20.50;76.50
29775;DHT22;16676;51.202;6.774;2022-10-15T17:28:51;20.50;76.10
29775;DHT22;16676;51.202;6.774;2022-10-15T17:32:54;20.50;76.50
29775;DHT22;16676;51.202;6.774;2022-10-15T17:36:55;20.50;76.10
29775;DHT22;16676;51.202;6.774;2022-10-15T17:40:57;20.50;76.00
29775;DHT22;16676;51.202;6.774;2022-10-15T17:45:01;20.50;76.70
29775;DHT22;16676;51.202;6.774;2022-10-15T17:49:03;20.50;76.50
29775;DHT22;16676;51.202;6.774;2022-10-15T17:53:05;20.50;78.60
29775;DHT22;16676;51.202;6.774;2022-10-15T17:57:07;20.50;78.10
29775;DHT22;16676;51.202;6.774;2022-10-15T18:01:13;20.60;79.80
29775;DHT22;16676;51.202;6.774;2022-10-15T18:05:15;20.60;79.10
29775;DHT22;16676;51.202;6.774;2022-10-15T18:09:17;20.60;78.70
29775;DHT22;16676;51.202;6.774;2022-10-15T18:13:19;20.60;78.70
29775;DHT22;16676;51.202;6.774;2022-10-15T18:17:22;20.60;78.10
29775;DHT22;16676;51.202;6.774;2022-10-15T18:21:24;20.60;78.40
29775;DHT22;16676;51.202;6.774;2022-10-15T18:25:27;20.50;77.50
29775;DHT22;16676;51.202;6.774;2022-10-15T18:29:30;20.50;77.60
29775;DHT22;16676;51.202;6.774;2022-10-15T18:33:34;20.60;77.50
29775;DHT22;16676;51.202;6.774;2022-10-15T18:37:39;20.50;76.90
29775;DHT22;16676;51.202;6.774;2022-10-15T18:41:41;20.50;77.10
29775;DHT22;16676;51.202;6.774;2022-10-15T18:45:42;20.50;77.20
29775;DHT22;16676;51.202;6.774;2022-10-15T18:49:48;20.50;77.10
29775;DHT22;16676;51.202;6.774;2022-10-15T18:53:50;20.50;77.00
29775;DHT22;16676;51.202;6.774;2022-10-15T18:57:52;20.50;77.10
29775;DHT22;16676;51.202;6.774;2022-10-15T19:01:53;20.50;76.90
29775;DHT22;16676;51.202;6.774;2022-10-15T19:05:57;20.50;77.40
29775;DHT22;16676;51.202;6.774;2022-10-15T19:09:58;20.50;77.90
29775;DHT22;16676;51.202;6.774;2022-10-15T19:14:00;20.50;77.80
29775;DHT22;16676;51.202;6.774;2022-10-15T19:18:02;20.50;77.40
29775;DHT22;16676;51.202;6.774;2022-10-15T19:22:06;20.50;76.90
29775;DHT22;16676;51.202;6.774;2022-10-15T19:26:09;20.50;77.90
29775;DHT22;16676;51.202;6.774;2022-10-15T19:30:12;20.50;78.70
29775;DHT22;16676;51.202;6.774;2022-10-15T19:34:13;20.50;78.20
29775;DHT22;16676;51.202;6.774;2022-10-15T19:38:17;20.50;78.70
29775;DHT22;16676;51.202;6.774;2022-10-15T19:42:19;20.50;78.60
29775;DHT22;16676;51.202;6.774;2022-10-15T19:46:20;20.50;78.70
29775;DHT22;16676;51.202;6.774;2022-10-15T19:50:22;20.40;76.80
29775;DHT22;16676;51.202;6.774;2022-10-15T19:54:26;20.40;76.70
29775;DHT22;16676;51.202;6.774;2022-10-15T19:58:28;20.50;77.80
29775;DHT22;16676;51.202;6.774;2022-10-15T20:02:30;20.50;77.70
29775;DHT22;16676;51.202;6.774;2022-10-15T20:06:32;20.40;77.80
29775;DHT22;16676;51.202;6.774;2022-10-15T20:10:38;20.40;78.10
29775;DHT22;16676;51.202;6.774;2022-10-15T20:14:40;20.40;77.90
29775;DHT22;16676;51.202;6.774;2022-10-15T20:18:41;20.40;77.80
29775;DHT22;16676;51.202;6.774;2022-10-15T20:22:43;20.40;77.60
29775;DHT22;16676;51.202;6.774;2022-10-15T20:26:48;20.40;77.70
29775;DHT22;16676;51.202;6.774;2022-10-15T20:30:50;20.40;77.50
29775;DHT22;16676;51.202;6.774;2022-10-15T20:34:54;20.40;77.70
29775;DHT22;16676;51.202;6.774;2022-10-15T20:38:58;20.40;77.30
29775;DHT22;16676;51.202;6.774;2022-10-15T20:43:01;20.40;77.60
29775;DHT22;16676;51.202;6.774;2022-10-15T20:47:04;20.40;77.30
29775;DHT22;16676;51.202;6.774;2022-10-15T20:51:08;20.40;77.30
29775;DHT22;16676;51.202;6.774;2022-10-15T20:55:12;20.40;77.50
29775;DHT22;16676;51.202;6.774;2022-10-15T20:59:16;20.40;77.50
29775;DHT22;16676;51.202;6.774;2022-10-15T21:03:17;20.40;77.20
29775;DHT22;16676;51.202;6.774;2022-10-15T21:07:19;20.40;76.80
29775;DHT22;16676;51.202;6.774;2022-10-15T21:11:23;20.40;77.50
29775;DHT22;16676;51.202;6.774;2022-10-15T21:15:27;20.40;77.20
29775;DHT22;16676;51.202;6.774;2022-10-15T21:19:30;20.40;76.90
29775;DHT22;16676;51.202;6.774;2022-10-15T21:23:32;20.40;77.00
29775;DHT22;16676;51.202;6.774;2022-10-15T21:27:34;20.40;76.80
29775;DHT22;16676;51.202;6.774;2022-10-15T21:31:38;20.30;76.40
29775;DHT22;16676;51.202;6.774;2022-10-15T21:35:40;20.40;76.50
29775;DHT22;16676;51.202;6.774;2022-10-15T21:39:42;20.30;76.80
29775;DHT22;16676;51.202;6.774;2022-10-15T21:43:44;20.30;76.50
29775;DHT22;16676;51.202;6.774;2022-10-15T21:47:47;20.30;76.70
29775;DHT22;16676;51.202;6.774;2022-10-15T21:51:49;20.30;76.70
29775;DHT22;16676;51.202;6.774;2022-10-15T21:55:54;20.30;76.50
29775;DHT22;16676;51.202;6.774;2022-10-15T21:59:56;20.30;76.60
29775;DHT22;16676;51.202;6.774;2022-10-15T22:04:01;20.30;76.50
29775;DHT22;16676;51.202;6.774;2022-10-15T22:08:03;20.30;77.00
29775;DHT22;16676;51.202;6.774;2022-10-15T22:12:05;20.30;76.50
29775;DHT22;16676;51.202;6.774;2022-10-15T22:16:07;20.30;76.50
29775;DHT22;16676;51.202;6.774;2022-10-15T22:20:11;20.30;76.40
29775;DHT22;16676;51.202;6.774;2022-10-15T22:24:14;20.30;76.40
29775;DHT22;16676;51.202;6.774;2022-10-15T22:28:16;20.30;76.40
29775;DHT22;16676;51.202;6.774;2022-10-15T22:32:18;20.30;76.30
29775;DHT22;16676;51.202;6.774;2022-10-15T22:36:23;20.30;76.40
29775;DHT22;16676;51.202;6.774;2022-10-15T22:40:25;20.30;76.20
29775;DHT22;16676;51.202;6.774;2022-10-15T22:44:27;20.30;76.20
29775;DHT22;16676;51.202;6.774;2022-10-15T22:48:31;20.30;76.40
29775;DHT22;16676;51.202;6.774;2022-10-15T22:52:34;20.30;76.20
29775;DHT22;16676;51.202;6.774;2022-10-15T22:56:36;20.30;76.20
29775;DHT22;16676;51.202;6.774;2022-10-15T23:00:38;20.30;76.10
29775;DHT22;16676;51.202;6.774;2022-10-15T23:04:40;20.30;76.10
29775;DHT22;16676;51.202;6.774;2022-10-15T23:08:44;20.30;75.90
29775;DHT22;16676;51.202;6.774;2022-10-15T23:12:46;20.20;76.10
29775;DHT22;16676;51.202;6.774;2022-10-15T23:16:48;20.30;76.20
29775;DHT22;16676;51.202;6.774;2022-10-15T23:20:50;20.20;76.20
29775;DHT22;16676;51.202;6.774;2022-10-15T23:24:55;20.20;75.60
29775;DHT22;16676;51.202;6.774;2022-10-15T23:28:59;20.20;75.80
29775;DHT22;16676;51.202;6.774;2022-10-15T23:33:01;20.20;75.90
29775;DHT22;16676;51.202;6.774;2022-10-15T23:37:03;20.20;75.70
29775;DHT22;16676;51.202;6.774;2022-10-15T23:41:07;20.20;75.60
29775;DHT22;16676;51.202;6.774;2022-10-15T23:45:09;20.20;75.50
29775;DHT22;16676;51.202;6.774;2022-10-15T23:49:11;20.20;75.60
29775;DHT22;16676;51.202;6.774;2022-10-15T23:53:13;20.20;75.60
29775;DHT22;16676;51.202;6.774;2022-10-15T23:57:16;20.20;75.30
